createdAt,value
2023-01-12T00:00:44.356Z,99771.34
2023-01-12T00:03:13.843Z,99763.28
2023-01-12T00:05:42.182Z,99775.56
2023-01-12T00:08:23.850Z,99773.41
2023-01-12T00:10:56.564Z,99774.06
2023-01-12T00:13:26.082Z,99782.50
2023-01-12T00:16:20.906Z,99779.13
2023-01-12T00:18:53.869Z,99786.81
2023-01-12T00:21:24.442Z,99785.22
2023-01-12T00:24:00.886Z,99767.44
2023-01-12T00:26:30.679Z,99771.78
2023-01-12T00:29:10.738Z,99790.16
2023-01-12T00:31:42.382Z,99788.78
2023-01-12T00:34:18.859Z,99778.94
2023-01-12T00:36:52.348Z,99788.63
2023-01-12T00:39:23.817Z,99784.84
2023-01-12T00:42:16.358Z,99777.63
2023-01-12T00:45:05.658Z,99783.94
2023-01-12T00:47:36.314Z,99799.06
2023-01-12T00:50:08.402Z,99790.81
2023-01-12T00:52:42.744Z,99791.28
2023-01-12T00:55:15.268Z,99799.44
2023-01-12T00:57:44.661Z,99796.91
2023-01-12T01:00:26.232Z,99822.09
2023-01-12T01:02:57.945Z,99804.06
2023-01-12T01:05:26.332Z,99805.72
2023-01-12T01:07:59.417Z,99811.53
2023-01-12T01:10:45.735Z,99799.13
2023-01-12T01:13:19.315Z,99799.78
2023-01-12T01:15:48.318Z,99809.41
2023-01-12T01:18:27.115Z,99823.88
2023-01-12T01:20:59.102Z,99814.78
2023-01-12T01:23:30.589Z,99815.13
2023-01-12T01:26:03.705Z,99825.81
2023-01-12T01:28:35.423Z,99813.63
2023-01-12T01:31:06.216Z,99823.03
2023-01-12T01:33:44.783Z,99822.72
2023-01-12T01:36:20.083Z,99825.38
2023-01-12T01:38:54.369Z,99812.97
2023-01-12T01:41:35.803Z,99822.59
2023-01-12T01:44:13.546Z,99831.25
2023-01-12T01:46:49.406Z,99831.25
2023-01-12T01:49:35.802Z,99839.25
2023-01-12T01:52:09.884Z,99831.94
2023-01-12T01:54:49.453Z,99830.97
2023-01-12T01:57:28.446Z,99834.06
2023-01-12T01:59:59.852Z,99825.00
2023-01-12T02:02:33.130Z,99837.53
2023-01-12T02:05:04.643Z,99834.16
2023-01-12T02:07:37.323Z,99832.84
2023-01-12T02:10:07.262Z,99841.16
2023-01-12T02:13:09.685Z,99841.03
2023-01-12T02:16:05.067Z,99845.31
2023-01-12T02:18:40.573Z,99835.31
2023-01-12T02:21:31.242Z,99850.03
2023-01-12T02:24:35.001Z,99847.06
2023-01-12T02:27:35.254Z,99862.97
2023-01-12T02:30:46.838Z,99857.63
2023-01-12T02:33:31.114Z,99864.97
2023-01-12T02:36:07.772Z,99862.16
2023-01-12T02:38:40.947Z,99861.91
2023-01-12T02:41:17.392Z,99868.34
2023-01-12T02:43:47.099Z,99854.91
2023-01-12T02:46:23.535Z,99851.50
2023-01-12T02:49:01.413Z,99862.38
2023-01-12T02:51:33.772Z,99863.66
2023-01-12T02:54:22.034Z,99853.28
2023-01-12T02:56:53.638Z,99863.22
2023-01-12T02:59:27.748Z,99855.16
2023-01-12T03:01:59.510Z,99860.88
2023-01-12T03:04:44.944Z,99864.75
2023-01-12T03:07:31.615Z,99853.88
2023-01-12T03:10:09.939Z,99855.41
2023-01-12T03:12:40.275Z,99859.88
2023-01-12T03:15:13.823Z,99862.16
2023-01-12T03:17:46.578Z,99860.34
2023-01-12T03:20:28.969Z,99861.03
2023-01-12T03:23:01.280Z,99868.31
2023-01-12T03:25:36.427Z,99858.19
2023-01-12T03:28:08.170Z,99864.63
2023-01-12T03:30:44.747Z,99875.34
2023-01-12T03:33:22.090Z,99868.97
2023-01-12T03:36:01.655Z,99864.97
2023-01-12T03:38:38.596Z,99869.59
2023-01-12T03:41:14.831Z,99866.19
2023-01-12T03:43:51.775Z,99880.47
2023-01-12T03:46:27.635Z,99868.50
2023-01-12T03:49:02.696Z,99870.09
2023-01-12T03:51:35.270Z,99864.53
2023-01-12T03:54:06.006Z,99870.59
2023-01-12T03:56:38.027Z,99881.38
2023-01-12T03:59:13.798Z,99880.25
2023-01-12T04:01:43.416Z,99893.91
2023-01-12T04:04:13.947Z,99872.44
2023-01-12T04:06:57.616Z,99869.03
2023-01-12T04:09:29.142Z,99873.75
2023-01-12T04:12:22.180Z,99884.41
2023-01-12T04:14:59.012Z,99882.72
2023-01-12T04:17:29.333Z,99886.81
2023-01-12T04:20:03.321Z,99880.19
2023-01-12T04:22:46.874Z,99879.84
2023-01-12T04:25:25.394Z,99882.59
2023-01-12T04:28:01.134Z,99890.03
2023-01-12T04:30:31.018Z,99893.13
2023-01-12T04:33:11.546Z,99904.06
2023-01-12T04:35:43.282Z,99906.72
2023-01-12T04:38:26.010Z,99922.19
2023-01-12T04:41:02.905Z,99902.41
2023-01-12T04:43:33.707Z,99903.88
2023-01-12T04:46:07.391Z,99911.00
2023-01-12T04:48:35.610Z,99906.66
2023-01-12T04:51:04.796Z,99905.47
2023-01-12T04:53:41.260Z,99916.09
2023-01-12T04:56:14.973Z,99909.81
2023-01-12T04:58:46.829Z,99916.22
2023-01-12T05:01:24.816Z,99926.28
2023-01-12T05:03:56.239Z,99920.50
2023-01-12T05:06:25.853Z,99940.94
2023-01-12T05:09:21.325Z,99939.59
2023-01-12T05:11:52.093Z,99937.41
2023-01-12T05:14:26.659Z,99943.34
2023-01-12T05:16:58.577Z,99935.00
2023-01-12T05:19:31.334Z,99959.19
2023-01-12T05:22:00.865Z,99957.00
2023-01-12T05:24:31.685Z,99940.59
2023-01-12T05:27:03.201Z,99953.38
2023-01-12T05:29:34.518Z,99951.56
2023-01-12T05:32:11.761Z,99953.63
2023-01-12T05:34:42.861Z,99962.56
2023-01-12T05:37:12.439Z,99960.63
2023-01-12T05:39:43.513Z,99958.22
2023-01-12T05:42:29.941Z,99965.69
2023-01-12T05:45:01.417Z,99974.88
2023-01-12T05:47:29.502Z,99959.19
2023-01-12T05:49:58.991Z,99969.94
2023-01-12T05:52:28.068Z,99971.75
2023-01-12T05:55:01.948Z,99976.59
2023-01-12T05:57:31.452Z,99984.69
2023-01-12T06:00:01.036Z,99982.88
2023-01-12T06:02:31.473Z,99986.50
2023-01-12T06:05:00.826Z,99991.59
2023-01-12T06:07:29.603Z,99978.41
2023-01-12T06:10:14.569Z,99984.09
2023-01-12T06:13:05.244Z,99992.19
2023-01-12T06:15:34.529Z,99990.00
2023-01-12T06:18:03.223Z,100001.38
2023-01-12T06:20:33.210Z,99996.53
2023-01-12T06:23:07.544Z,99996.06
2023-01-12T06:25:50.832Z,99995.31
2023-01-12T06:28:22.521Z,99995.56
2023-01-12T06:31:05.177Z,99998.56
2023-01-12T06:33:36.090Z,100006.66
2023-01-12T06:36:13.309Z,100009.91
2023-01-12T06:38:44.247Z,100013.66
2023-01-12T06:41:43.012Z,100003.59
2023-01-12T06:44:12.879Z,100001.47
2023-01-12T06:46:42.272Z,100009.91
2023-01-12T06:49:20.341Z,100007.25
2023-01-12T06:51:51.662Z,99985.41
2023-01-12T06:54:21.349Z,100013.53
2023-01-12T06:57:02.939Z,100001.94
2023-01-12T06:59:32.339Z,100014.50
2023-01-12T07:02:00.938Z,100018.97
2023-01-12T07:04:37.574Z,100028.72
2023-01-12T07:07:07.498Z,100025.19
2023-01-12T07:09:37.399Z,100021.94
2023-01-12T07:12:09.751Z,100021.63
2023-01-12T07:14:41.526Z,100029.22
2023-01-12T07:17:24.068Z,100027.25
2023-01-12T07:19:53.706Z,100031.34
2023-01-12T07:22:26.591Z,100025.78
2023-01-12T07:24:58.039Z,100027.75
2023-01-12T07:27:30.257Z,100029.63
2023-01-12T07:30:02.095Z,100022.09
2023-01-12T07:32:33.687Z,100031.94
2023-01-12T07:35:05.405Z,100017.13
2023-01-12T07:37:46.944Z,100022.03
2023-01-12T07:40:26.586Z,100029.06
2023-01-12T07:43:07.721Z,100030.25
2023-01-12T07:45:38.239Z,100019.44
2023-01-12T07:48:09.350Z,100021.41
2023-01-12T07:50:40.899Z,100008.13
2023-01-12T07:53:10.187Z,100016.31
2023-01-12T07:55:43.801Z,100007.88
2023-01-12T07:58:15.188Z,100010.31
2023-01-12T08:00:45.312Z,100005.84
2023-01-12T08:03:15.917Z,100006.31
2023-01-12T08:05:47.694Z,99995.91
2023-01-12T08:08:24.160Z,99999.06
2023-01-12T08:10:52.819Z,99993.78
2023-01-12T08:13:29.255Z,100001.47
2023-01-12T08:16:06.464Z,100003.44
2023-01-12T08:18:42.181Z,100009.00
2023-01-12T08:21:15.391Z,100010.22
2023-01-12T08:23:53.464Z,100006.31
2023-01-12T08:26:27.274Z,99998.09
2023-01-12T08:29:08.071Z,100010.09
2023-01-12T08:31:45.809Z,100003.56
2023-01-12T08:34:16.505Z,100001.38
2023-01-12T08:36:47.050Z,100014.19
2023-01-12T08:39:18.631Z,100017.94
2023-01-12T08:41:55.847Z,100029.56
2023-01-12T08:44:34.945Z,100022.66
2023-01-12T08:47:08.470Z,100025.91
2023-01-12T08:49:40.178Z,100015.72
2023-01-12T08:52:11.987Z,100013.78
2023-01-12T08:54:49.273Z,100013.47
2023-01-12T08:57:21.403Z,100015.09
2023-01-12T08:59:53.382Z,100006.25
2023-01-12T09:02:25.309Z,100008.47
2023-01-12T09:05:00.734Z,100012.28
2023-01-12T09:07:31.780Z,100014.63
2023-01-12T09:10:06.190Z,100013.03
2023-01-12T09:12:51.843Z,100019.31
2023-01-12T09:15:33.380Z,100007.78
2023-01-12T09:18:04.030Z,100023.28
2023-01-12T09:20:34.210Z,100011.91
2023-01-12T09:23:10.085Z,100030.72
2023-01-12T09:25:39.418Z,100006.63
2023-01-12T09:28:10.051Z,100006.28
2023-01-12T09:30:40.647Z,100031.84
2023-01-12T09:33:08.976Z,100008.06
2023-01-12T09:35:38.330Z,100013.78
2023-01-12T09:38:07.350Z,99998.38
2023-01-12T09:40:45.348Z,99993.47
2023-01-12T09:43:33.432Z,100034.69
2023-01-12T09:46:34.845Z,99992.31
2023-01-12T09:49:11.394Z,99996.50
2023-01-12T09:51:48.611Z,99987.00
2023-01-12T09:54:18.417Z,99995.84
2023-01-12T09:57:00.854Z,99981.47
2023-01-12T10:00:02.789Z,99977.22
2023-01-12T10:03:02.932Z,99987.00
2023-01-12T10:05:42.139Z,99984.66
2023-01-12T10:08:23.003Z,99987.06
2023-01-12T10:11:06.172Z,100000.28
2023-01-12T10:14:04.572Z,99975.66
2023-01-12T10:17:30.078Z,99977.09
2023-01-12T10:20:12.050Z,99994.38
2023-01-12T10:22:42.912Z,99987.06
2023-01-12T10:25:23.658Z,99972.69
2023-01-12T10:27:53.758Z,99968.91
2023-01-12T10:30:36.203Z,99986.22
2023-01-12T10:33:20.249Z,99976.09
2023-01-12T10:36:01.307Z,99972.19
2023-01-12T10:38:34.891Z,99937.22
2023-01-12T10:41:26.297Z,99949.69
2023-01-12T10:44:16.781Z,99948.25
2023-01-12T10:46:45.246Z,99938.88
2023-01-12T10:49:20.922Z,99936.81
2023-01-12T10:51:55.194Z,99926.88
2023-01-12T10:54:27.301Z,99929.00
2023-01-12T10:56:59.454Z,99918.91
2023-01-12T10:59:33.832Z,99910.63
2023-01-12T11:02:15.998Z,99907.97
2023-01-12T11:04:56.711Z,99914.28
2023-01-12T11:07:30.062Z,99898.69
2023-01-12T11:10:36.065Z,99887.44
2023-01-12T11:13:11.536Z,99914.44
2023-01-12T11:16:00.617Z,99889.84
2023-01-12T11:18:38.999Z,99893.91
2023-01-12T11:21:17.197Z,99883.53
2023-01-12T11:24:00.683Z,99886.72
2023-01-12T11:26:38.088Z,99880.69
2023-01-12T11:29:39.372Z,99889.28
2023-01-12T11:32:15.626Z,99871.56
2023-01-12T11:34:57.385Z,99867.63
2023-01-12T11:37:29.050Z,99857.91
2023-01-12T11:40:19.066Z,99848.97
2023-01-12T11:43:08.423Z,99841.38
2023-01-12T11:45:45.146Z,99834.31
2023-01-12T11:48:24.059Z,99830.50
2023-01-12T11:50:54.505Z,99831.63
2023-01-12T11:53:29.759Z,99818.16
2023-01-12T11:56:11.653Z,99816.47
2023-01-12T11:58:50.972Z,99810.25
2023-01-12T12:01:27.311Z,99813.25
2023-01-12T12:04:03.954Z,99826.28
2023-01-12T12:07:07.079Z,99798.84
2023-01-12T12:09:58.132Z,99817.31
2023-01-12T12:12:38.613Z,99801.94
2023-01-12T12:15:26.582Z,99795.50
2023-01-12T12:18:04.628Z,99785.22
2023-01-12T12:20:37.273Z,99812.19
2023-01-12T12:23:22.014Z,99829.53
2023-01-12T12:25:59.315Z,99828.94
2023-01-12T12:28:52.985Z,99794.06
2023-01-12T12:31:41.416Z,99813.59
2023-01-12T12:34:28.620Z,99789.28
2023-01-12T12:37:02.645Z,99796.03
2023-01-12T12:39:51.473Z,99795.72
2023-01-12T12:43:18.026Z,99784.88
2023-01-12T12:45:56.202Z,99800.94
2023-01-12T12:48:33.770Z,99795.16
2023-01-12T12:51:07.581Z,99797.00
2023-01-12T12:53:46.428Z,99786.16
2023-01-12T12:56:28.563Z,99792.50
2023-01-12T12:59:10.864Z,99785.41
2023-01-12T13:01:43.848Z,99800.25
2023-01-12T13:04:15.245Z,99786.47
2023-01-12T13:06:49.537Z,99791.38
2023-01-12T13:09:48.506Z,99785.19
2023-01-12T13:12:35.339Z,99781.13
2023-01-12T13:15:24.931Z,99778.97
2023-01-12T13:18:44.083Z,99775.47
2023-01-12T13:21:36.941Z,99774.72
2023-01-12T13:24:28.531Z,99766.31
2023-01-12T13:27:11.074Z,99785.41
2023-01-12T13:29:44.467Z,99773.63
2023-01-12T13:32:46.714Z,99776.00
2023-01-12T13:35:52.381Z,99775.31
2023-01-12T13:38:53.562Z,99781.63
2023-01-12T13:41:49.241Z,99769.00
2023-01-12T13:44:25.600Z,99791.19
2023-01-12T13:47:13.047Z,99782.50
2023-01-12T13:49:54.472Z,99786.59
2023-01-12T13:52:31.065Z,99790.56
2023-01-12T13:55:09.133Z,99789.00
2023-01-12T13:57:38.268Z,99782.50
2023-01-12T14:00:30.605Z,99772.44
2023-01-12T14:03:03.677Z,99775.78
2023-01-12T14:05:44.342Z,99782.38
2023-01-12T14:08:39.616Z,99769.84
2023-01-12T14:11:43.268Z,99771.00
2023-01-12T14:14:46.045Z,99771.44
2023-01-12T14:17:37.071Z,99779.88
2023-01-12T14:20:17.583Z,99769.63
2023-01-12T14:23:01.082Z,99778.31
2023-01-12T14:25:36.222Z,99771.34
2023-01-12T14:28:18.684Z,99761.19
2023-01-12T14:30:50.428Z,99761.31
2023-01-12T14:33:22.013Z,99754.72
2023-01-12T14:35:54.844Z,99748.41
2023-01-12T14:38:27.806Z,99752.91
2023-01-12T14:41:01.089Z,99751.63
2023-01-12T14:43:55.727Z,99751.34
2023-01-12T14:46:28.821Z,99750.78
2023-01-12T14:49:04.913Z,99753.47
2023-01-12T14:51:35.645Z,99762.91
2023-01-12T14:54:20.241Z,99766.13
2023-01-12T14:56:56.402Z,99764.88
2023-01-12T14:59:29.335Z,99766.41
2023-01-12T15:02:34.079Z,99765.59
2023-01-12T15:05:09.479Z,99759.97
2023-01-12T15:07:42.937Z,99771.91
2023-01-12T15:10:38.794Z,99776.84
2023-01-12T15:13:28.855Z,99780.59
2023-01-12T15:16:23.920Z,99781.59
2023-01-12T15:19:11.700Z,99788.75
2023-01-12T15:22:07.743Z,99790.59
2023-01-12T15:24:55.029Z,99788.75
2023-01-12T15:27:32.714Z,99783.13
2023-01-12T15:30:09.341Z,99788.19
2023-01-12T15:32:47.785Z,99780.06
2023-01-12T15:35:21.292Z,99771.06
2023-01-12T15:37:52.007Z,99780.22
2023-01-12T15:40:35.171Z,99775.28
2023-01-12T15:43:04.890Z,99769.38
2023-01-12T15:45:43.420Z,99758.69
2023-01-12T15:48:28.995Z,99749.00
2023-01-12T15:50:57.921Z,99748.84
2023-01-12T15:53:27.790Z,99751.66
2023-01-12T15:55:57.185Z,99752.50
2023-01-12T15:58:30.692Z,99748.72
2023-01-12T16:01:01.804Z,99744.38
2023-01-12T16:04:09.923Z,99778.34
2023-01-12T16:06:40.979Z,99780.75
2023-01-12T16:09:18.088Z,99771.19
2023-01-12T16:11:48.999Z,99766.00
2023-01-12T16:14:23.666Z,99758.00
2023-01-12T16:16:52.724Z,99730.91
2023-01-12T16:19:30.834Z,99721.91
2023-01-12T16:22:02.057Z,99696.47
2023-01-12T16:24:35.624Z,99696.59
2023-01-12T16:27:05.734Z,99703.34
2023-01-12T16:29:35.127Z,99701.09
2023-01-12T16:32:09.295Z,99704.75
2023-01-12T16:34:53.289Z,99708.81
2023-01-12T16:37:26.870Z,99701.38
2023-01-12T16:40:07.463Z,99696.63
2023-01-12T16:42:36.526Z,99698.44
2023-01-12T16:45:16.293Z,99700.94
2023-01-12T16:47:50.471Z,99689.84
2023-01-12T16:50:36.974Z,99694.34
2023-01-12T16:53:08.159Z,99701.09
2023-01-12T16:55:46.641Z,99695.59
2023-01-12T16:58:17.787Z,99704.75
2023-01-12T17:00:48.313Z,99702.63
2023-01-12T17:03:23.619Z,99694.72
2023-01-12T17:06:02.252Z,99698.84
2023-01-12T17:08:35.310Z,99704.84
2023-01-12T17:11:09.103Z,99709.78
2023-01-12T17:13:37.754Z,99713.28
2023-01-12T17:16:19.197Z,99714.38
2023-01-12T17:18:50.109Z,99709.50
2023-01-12T17:21:22.857Z,99714.81
2023-01-12T17:23:54.158Z,99713.56
2023-01-12T17:26:38.245Z,99712.72
2023-01-12T17:29:15.855Z,99719.72
2023-01-12T17:32:04.065Z,99721.06
2023-01-12T17:34:36.730Z,99733.56
2023-01-12T17:37:11.331Z,99730.47
2023-01-12T17:39:52.493Z,99727.94
2023-01-12T17:42:43.507Z,99736.19
2023-01-12T17:45:15.497Z,99732.78
2023-01-12T17:47:47.433Z,99724.47
2023-01-12T17:50:17.373Z,99723.50
2023-01-12T17:53:09.511Z,99719.72
2023-01-12T17:55:48.224Z,99729.53
2023-01-12T17:58:28.205Z,99724.88
2023-01-12T18:00:59.363Z,99731.59
2023-01-12T18:03:37.957Z,99719.25
2023-01-12T18:06:25.660Z,99729.66
2023-01-12T18:09:15.007Z,99723.31
2023-01-12T18:11:43.906Z,99726.03
2023-01-12T18:14:18.383Z,99715.19
2023-01-12T18:16:49.513Z,99718.38
2023-01-12T18:19:32.108Z,99708.88
2023-01-12T18:22:07.218Z,99714.16
2023-01-12T18:24:55.539Z,99711.97
2023-01-12T18:27:26.000Z,99704.25
2023-01-12T18:29:58.362Z,99705.34
2023-01-12T18:32:40.424Z,99691.50
2023-01-12T18:35:16.515Z,99695.25
2023-01-12T18:37:50.049Z,99705.97
2023-01-12T18:40:24.974Z,99687.50
2023-01-12T18:42:55.967Z,99696.97
2023-01-12T18:45:39.743Z,99703.75
2023-01-12T18:48:23.755Z,99701.34
2023-01-12T18:51:12.224Z,99698.56
2023-01-12T18:53:43.096Z,99700.50
2023-01-12T18:56:27.021Z,99698.38
2023-01-12T18:58:58.494Z,99693.44
2023-01-12T19:01:28.648Z,99704.63
2023-01-12T19:04:07.238Z,99698.25
2023-01-12T19:06:44.121Z,99689.16
2023-01-12T19:09:36.006Z,99699.41
2023-01-12T19:12:21.667Z,99704.56
2023-01-12T19:15:18.233Z,99705.22
2023-01-12T19:17:50.415Z,99713.84
2023-01-12T19:20:21.446Z,99705.03
2023-01-12T19:23:09.536Z,99695.94
2023-01-12T19:26:10.091Z,99703.19
2023-01-12T19:28:56.899Z,99702.75
2023-01-12T19:31:31.063Z,99693.91
2023-01-12T19:34:01.556Z,99689.09
2023-01-12T19:36:40.679Z,99692.22
2023-01-12T19:39:15.663Z,99687.25
2023-01-12T19:42:11.357Z,99688.56
2023-01-12T19:44:52.348Z,99684.06
2023-01-12T19:47:24.198Z,99683.34
2023-01-12T19:50:00.391Z,99686.81
2023-01-12T19:52:41.013Z,99683.34
2023-01-12T19:55:13.863Z,99681.25
2023-01-12T19:57:48.385Z,99683.38
2023-01-12T20:00:24.474Z,99675.53
2023-01-12T20:02:56.743Z,99677.50
2023-01-12T20:05:30.512Z,99682.97
2023-01-12T20:08:07.396Z,99682.38
2023-01-12T20:10:49.476Z,99689.69
2023-01-12T20:13:28.408Z,99679.88
2023-01-12T20:16:11.750Z,99687.31
2023-01-12T20:18:51.283Z,99669.94
2023-01-12T20:21:32.905Z,99679.19
2023-01-12T20:24:10.531Z,99668.50
2023-01-12T20:26:40.899Z,99675.25
2023-01-12T20:29:13.076Z,99677.78
2023-01-12T20:31:46.880Z,99683.09
2023-01-12T20:34:19.245Z,99677.06
2023-01-12T20:36:58.452Z,99665.00
2023-01-12T20:39:31.477Z,99675.53
2023-01-12T20:42:11.781Z,99669.91
2023-01-12T20:44:56.174Z,99670.59
2023-01-12T20:47:28.578Z,99677.72
2023-01-12T20:49:59.736Z,99670.69
2023-01-12T20:52:40.794Z,99662.28
2023-01-12T20:55:26.301Z,99664.19
2023-01-12T20:57:59.689Z,99661.94
2023-01-12T21:00:45.402Z,99666.66
2023-01-12T21:03:21.896Z,99664.13
2023-01-12T21:05:51.148Z,99672.13
2023-01-12T21:08:24.641Z,99666.72
2023-01-12T21:11:04.297Z,99666.34
2023-01-12T21:13:42.203Z,99665.88
2023-01-12T21:16:14.214Z,99664.44
2023-01-12T21:18:46.425Z,99660.84
2023-01-12T21:21:23.176Z,99657.31
2023-01-12T21:23:54.580Z,99655.53
2023-01-12T21:26:28.703Z,99654.75
2023-01-12T21:29:00.339Z,99657.78
2023-01-12T21:31:34.353Z,99661.56
2023-01-12T21:34:13.468Z,99655.84
2023-01-12T21:36:43.041Z,99655.31
2023-01-12T21:39:19.936Z,99656.50
2023-01-12T21:42:10.479Z,99652.25
2023-01-12T21:44:40.327Z,99658.97
2023-01-12T21:47:09.078Z,99653.25
2023-01-12T21:49:50.211Z,99656.88
2023-01-12T21:52:23.861Z,99655.44
2023-01-12T21:55:01.087Z,99652.78
2023-01-12T21:57:33.432Z,99652.00
2023-01-12T22:00:07.229Z,99641.22
2023-01-12T22:02:45.096Z,99644.53
2023-01-12T22:05:36.769Z,99650.38
2023-01-12T22:08:13.176Z,99648.56
2023-01-12T22:10:44.939Z,99644.38
2023-01-12T22:13:21.442Z,99645.50
2023-01-12T22:15:52.935Z,99638.84
2023-01-12T22:18:25.504Z,99638.44
2023-01-12T22:21:09.459Z,99646.56
2023-01-12T22:23:45.866Z,99649.75
2023-01-12T22:26:17.356Z,99640.84
2023-01-12T22:28:52.368Z,99640.41
2023-01-12T22:31:36.976Z,99631.72
2023-01-12T22:34:11.418Z,99642.03
2023-01-12T22:36:46.329Z,99636.31
2023-01-12T22:39:17.341Z,99636.38
2023-01-12T22:41:50.587Z,99651.31
2023-01-12T22:44:20.397Z,99636.81
2023-01-12T22:46:54.742Z,99642.75
2023-01-12T22:49:24.681Z,99643.00
2023-01-12T22:51:59.773Z,99643.34
2023-01-12T22:54:31.036Z,99626.28
2023-01-12T22:57:02.069Z,99634.03
2023-01-12T22:59:39.140Z,99627.91
2023-01-12T23:02:23.638Z,99625.03
2023-01-12T23:04:53.656Z,99625.53
2023-01-12T23:07:28.515Z,99624.84
2023-01-12T23:10:02.871Z,99626.00
2023-01-12T23:12:34.371Z,99627.41
2023-01-12T23:15:05.213Z,99623.59
2023-01-12T23:17:45.571Z,99625.47
2023-01-12T23:20:24.879Z,99622.44
2023-01-12T23:23:02.360Z,99622.44
2023-01-12T23:25:48.783Z,99614.75
2023-01-12T23:28:17.261Z,99617.63
2023-01-12T23:30:49.010Z,99619.56
2023-01-12T23:33:25.388Z,99612.31
2023-01-12T23:35:55.203Z,99615.00
2023-01-12T23:38:31.299Z,99611.78
2023-01-12T23:41:02.582Z,99605.41
2023-01-12T23:43:37.897Z,99604.41
2023-01-12T23:46:08.634Z,99603.19
2023-01-12T23:48:39.506Z,99606.00
2023-01-12T23:51:11.844Z,99606.78
2023-01-12T23:53:45.361Z,99605.28
2023-01-12T23:56:24.347Z,99604.19
2023-01-12T23:58:52.859Z,99608.53
